Time;durP1;ratioP1;P1;durP2;ratioP2;P2;SDS_P1;SDS_P2;PMS_P1;PMS_P2;Temp;Humidity;BMP_temperature;BMP_pressure;BME280_temperature;BME280_humidity;BME280_pressure;Samples;Min_cycle;Max_cycle;Signal;HPM_P1;HPM_P2
2022/12/27 00:02:11;;;;;;;2.25;0.60;;;;;;;5.70;100.00;99608.72;4999214;28;20037;-76
2022/12/27 00:04:37;;;;;;;3.05;1.13;;;;;;;5.46;100.00;99602.09;4994617;28;20101;-76
2022/12/27 00:07:02;;;;;;;0.98;0.52;;;;;;;5.26;100.00;99579.06;4994874;28;20021;-75
2022/12/27 00:09:28;;;;;;;3.30;0.60;;;;;;;5.35;100.00;99602.31;5010777;28;20105;-75
2022/12/27 00:11:53;;;;;;;1.75;0.40;;;;;;;5.09;100.00;99596.81;4996478;28;20025;-75
2022/12/27 00:14:18;;;;;;;2.00;0.40;;;;;;;4.99;100.00;99599.53;5014781;28;20030;-76
2022/12/27 00:16:44;;;;;;;2.83;0.50;;;;;;;4.88;100.00;99607.78;5016488;28;20460;-75
2022/12/27 00:19:09;;;;;;;0.90;0.25;;;;;;;4.30;100.00;99531.09;5015454;28;20476;-76
2022/12/27 00:21:35;;;;;;;2.83;0.75;;;;;;;4.77;100.00;99614.16;5013143;28;20026;-76
2022/12/27 00:24:01;;;;;;;0.52;0.28;;;;;;;4.78;100.00;99633.78;5011582;28;20026;-76
2022/12/27 00:26:32;;;;;;;1.20;0.50;;;;;;;4.70;100.00;99647.06;5015394;28;20498;-76
2022/12/27 00:28:58;;;;;;;0.80;0.30;;;;;;;4.55;100.00;99631.41;5015427;28;20115;-76
2022/12/27 00:31:25;;;;;;;1.50;0.32;;;;;;;4.37;100.00;99625.09;5015859;28;20440;-76
2022/12/27 00:33:53;;;;;;;0.40;0.28;;;;;;;4.39;100.00;99640.06;4997792;28;20022;-75
2022/12/27 00:36:21;;;;;;;1.10;0.30;;;;;;;4.41;100.00;99673.91;4997952;28;20060;-77
2022/12/27 00:38:46;;;;;;;2.28;0.70;;;;;;;4.37;100.00;99670.66;4996453;28;20025;-76
2022/12/27 00:41:12;;;;;;;1.50;0.40;;;;;;;4.24;100.00;99670.09;4999229;28;20036;-76
2022/12/27 00:43:38;;;;;;;0.60;0.30;;;;;;;4.13;100.00;99665.72;4997888;28;20045;-75
2022/12/27 00:46:04;;;;;;;0.77;0.22;;;;;;;4.11;100.00;99667.69;4998464;28;20057;-76
2022/12/27 00:48:29;;;;;;;2.17;0.38;;;;;;;4.05;100.00;99681.66;5014255;28;20080;-76
2022/12/27 00:51:00;;;;;;;2.15;0.40;;;;;;;3.88;100.00;99667.16;4996419;28;20022;-75
2022/12/27 00:53:27;;;;;;;0.85;0.30;;;;;;;3.91;100.00;99688.28;5010436;28;20536;-76
2022/12/27 00:55:52;;;;;;;2.65;0.50;;;;;;;3.88;100.00;99692.06;4994127;28;20551;-76
2022/12/27 00:58:18;;;;;;;3.47;0.77;;;;;;;3.70;100.00;99683.88;5015724;28;20029;-76
2022/12/27 01:00:43;;;;;;;1.17;0.28;;;;;;;3.70;100.00;99699.09;5015002;28;20037;-75
2022/12/27 01:03:08;;;;;;;1.95;0.40;;;;;;;3.51;100.00;99679.31;5013815;28;20571;-76
2022/12/27 01:05:36;;;;;;;2.20;0.50;;;;;;;3.47;100.00;99685.91;5014818;28;20091;-75
2022/12/27 01:08:03;;;;;;;1.02;0.40;;;;;;;3.52;100.00;99706.91;5013575;28;20079;-76
2022/12/27 01:10:28;;;;;;;1.90;0.38;;;;;;;3.38;100.00;99692.09;5013975;28;20369;-75
2022/12/27 01:12:54;;;;;;;0.93;0.32;;;;;;;3.51;100.00;99718.59;4994579;28;20029;-75
2022/12/27 01:15:19;;;;;;;3.95;0.38;;;;;;;3.33;100.00;99714.84;5014960;28;20056;-76
2022/12/27 01:17:45;;;;;;;1.98;0.40;;;;;;;3.33;100.00;99720.22;5016581;28;20877;-75
2022/12/27 01:20:10;;;;;;;3.75;0.60;;;;;;;3.21;100.00;99722.97;5000051;28;20030;-76
2022/12/27 01:22:36;;;;;;;2.13;0.50;;;;;;;3.08;100.00;99709.81;5014819;28;20057;-76
2022/12/27 01:25:01;;;;;;;2.15;0.40;;;;;;;3.06;100.00;99711.78;4996219;28;20033;-76
2022/12/27 01:27:27;;;;;;;1.05;0.50;;;;;;;3.10;100.00;99741.78;4997046;28;20076;-76
2022/12/27 01:29:52;;;;;;;1.08;0.30;;;;;;;3.07;100.00;99750.09;4996475;28;20022;-75
2022/12/27 01:32:18;;;;;;;4.88;0.40;;;;;;;2.81;100.00;99718.41;5013953;28;20037;-76
2022/12/27 01:34:43;;;;;;;1.38;0.32;;;;;;;2.90;100.00;99762.19;5013010;28;20491;-76
2022/12/27 01:37:08;;;;;;;5.15;0.63;;;;;;;2.89;100.00;99778.38;4999926;28;20034;-76
2022/12/27 01:39:33;;;;;;;2.75;0.20;;;;;;;2.84;100.00;99778.78;5009502;28;20029;-76
2022/12/27 01:44:49;;;;;;;0.75;0.25;;;;;;;2.91;100.00;99784.44;5009648;28;20139;-75
2022/12/27 01:47:19;;;;;;;4.07;0.60;;;;;;;2.88;100.00;99795.38;5000924;28;20484;-76
2022/12/27 01:49:58;;;;;;;1.95;0.20;;;;;;;2.70;100.00;99774.59;4993894;28;20029;-76
2022/12/27 01:52:29;;;;;;;2.53;0.55;;;;;;;2.75;100.00;99800.91;4989100;28;20037;-76
2022/12/27 01:54:59;;;;;;;1.08;0.50;;;;;;;2.55;100.00;99787.41;4992491;28;20041;-76
2022/12/27 01:57:24;;;;;;;4.43;0.40;;;;;;;2.53;100.00;99775.16;4992769;28;20034;-78
2022/12/27 01:59:50;;;;;;;2.88;0.57;;;;;;;2.51;100.00;99793.97;5010999;28;20036;-76
2022/12/27 02:02:15;;;;;;;4.28;0.40;;;;;;;2.43;100.00;99775.06;5010498;28;20036;-75
2022/12/27 02:04:40;;;;;;;3.25;0.40;;;;;;;2.58;100.00;99797.00;4993568;28;20488;-75
2022/12/27 02:07:06;;;;;;;1.92;0.55;;;;;;;2.41;100.00;99775.22;5014596;28;20087;-76
2022/12/27 02:09:54;;;;;;;4.60;0.50;;;;;;;2.50;100.00;99796.78;5012666;28;20026;-75
2022/12/27 02:12:20;;;;;;;0.33;0.10;;;;;;;2.41;100.00;99804.59;4997887;28;20049;-76
2022/12/27 02:14:48;;;;;;;3.97;0.47;;;;;;;2.64;100.00;99813.34;5022426;28;20026;-75
2022/12/27 02:17:20;;;;;;;2.55;0.70;;;;;;;2.58;100.00;99815.69;5023577;28;20089;-75
2022/12/27 02:20:09;;;;;;;1.05;0.30;;;;;;;2.53;100.00;99829.41;5023437;28;20034;-75
2022/12/27 02:25:57;;;;;;;2.78;0.52;;;;;;;2.34;100.00;99819.41;5022709;28;20088;-77
2022/12/27 02:28:31;;;;;;;0.60;0.45;;;;;;;2.44;100.00;99824.84;5002421;28;20048;-77
2022/12/27 02:31:35;;;;;;;2.33;0.45;;;;;;;2.48;100.00;99814.75;5023787;28;20029;-75
2022/12/27 02:34:06;;;;;;;0.90;0.40;;;;;;;2.40;100.00;99816.22;4983771;28;20034;-75
2022/12/27 02:36:35;;;;;;;4.55;0.55;;;;;;;2.38;100.00;99820.00;5002522;28;20030;-77
2022/12/27 02:39:02;;;;;;;5.35;0.70;;;;;;;2.22;100.00;99804.38;5001857;28;20464;-76
2022/12/27 02:53:03;;;;;;;2.40;0.65;;;;;;;2.18;100.00;99845.66;5030113;28;20044;-74
2022/12/27 02:59:06;;;;;;;1.80;0.80;;;;;;;2.15;100.00;99844.09;5031611;28;20044;-75
2022/12/27 03:04:40;;;;;;;;;;;;;;;2.07;100.00;99857.22;5013227;28;20566;-76
2022/12/27 03:07:18;;;;;;;8.07;0.93;;;;;;;2.11;100.00;99845.31;4995899;28;19914;-76
2022/12/27 03:15:58;;;;;;;2.97;0.70;;;;;;;1.83;100.00;99845.81;5006439;28;20436;-75
2022/12/27 03:18:26;;;;;;;4.53;0.75;;;;;;;1.82;100.00;99855.66;5007174;28;20033;-75
2022/12/27 03:26:28;;;;;;;3.08;0.68;;;;;;;1.59;100.00;99848.59;5013446;28;20076;-76
2022/12/27 03:34:37;;;;;;;3.38;0.60;;;;;;;1.95;100.00;99852.84;5010187;28;20451;-75
2022/12/27 03:40:04;;;;;;;;;;;;;;;2.20;100.00;99873.06;5010423;28;20095;-75
2022/12/27 03:46:32;;;;;;;6.45;1.02;;;;;;;2.20;100.00;99881.06;5013157;28;20036;-76
2022/12/27 03:48:10;;;;;;;3.38;0.80;;;;;;;2.27;100.00;99874.28;5015412;28;20029;-75
2022/12/27 03:50:48;;;;;;;5.10;0.75;;;;;;;2.20;100.00;99875.75;5016047;28;20124;-76
2022/12/27 03:53:13;;;;;;;4.50;0.80;;;;;;;2.29;100.00;99896.38;4999906;28;20507;-76
2022/12/27 03:55:39;;;;;;;1.70;0.82;;;;;;;2.35;100.00;99885.19;5011497;28;20034;-76
2022/12/27 03:58:04;;;;;;;6.55;0.80;;;;;;;2.22;100.00;99879.13;5011037;28;20057;-76
2022/12/27 04:00:30;;;;;;;3.85;0.90;;;;;;;2.12;100.00;99878.19;5014742;28;20022;-75
2022/12/27 04:02:55;;;;;;;2.40;0.82;;;;;;;1.89;100.00;99859.53;5015529;28;20029;-75
2022/12/27 04:05:21;;;;;;;10.93;1.50;;;;;;;2.00;100.00;99889.84;5016273;28;20080;-76
2022/12/27 04:35:05;;;;;;;6.22;1.30;;;;;;;0.78;100.00;99912.47;5016718;28;20076;-75
2022/12/27 04:37:31;;;;;;;2.92;1.30;;;;;;;0.69;100.00;99907.84;4990232;28;20070;-75
2022/12/27 04:56:40;;;;;;;2.58;1.30;;;;;;;0.54;100.00;99928.44;5015561;28;20044;-75
2022/12/27 05:02:26;;;;;;;3.00;1.17;;;;;;;0.52;100.00;99925.03;5008069;28;20045;-76
2022/12/27 05:04:52;;;;;;;2.38;0.90;;;;;;;0.47;100.00;99934.31;4997212;28;20491;-75
2022/12/27 05:15:47;;;;;;;5.28;1.30;;;;;;;0.43;100.00;99928.38;5014334;28;20364;-75
2022/12/27 05:18:12;;;;;;;7.18;1.40;;;;;;;0.48;100.00;99950.19;5013875;28;20034;-76
2022/12/27 05:20:37;;;;;;;7.47;1.42;;;;;;;0.43;100.00;99958.50;5014790;28;20484;-75
2022/12/27 05:25:46;;;;;;;6.22;1.45;;;;;;;0.12;100.00;99957.19;5007202;28;20036;-76
2022/12/27 05:28:12;;;;;;;4.45;1.17;;;;;;;0.01;100.00;99951.78;4996770;28;20022;-75
2022/12/27 05:30:40;;;;;;;4.40;1.33;;;;;;;-0.02;100.00;99963.47;4994078;28;20656;-75
2022/12/27 05:33:06;;;;;;;6.00;1.42;;;;;;;-0.13;100.00;99973.16;5014781;28;20462;-75
2022/12/27 05:35:33;;;;;;;4.68;1.80;;;;;;;-0.17;100.00;99977.84;4993953;28;20122;-76
2022/12/27 05:37:59;;;;;;;2.95;1.77;;;;;;;-0.08;100.00;99963.91;5010881;28;20113;-75
2022/12/27 05:40:25;;;;;;;6.93;1.45;;;;;;;0.05;100.00;99966.53;4995752;28;20028;-76
2022/12/27 05:42:50;;;;;;;4.70;1.58;;;;;;;0.09;100.00;99983.16;4990681;28;20068;-76
2022/12/27 05:52:12;;;;;;;3.30;1.48;;;;;;;0.11;100.00;99986.56;5081132;22;20110;-58
2022/12/27 05:54:37;;;;;;;8.05;1.60;;;;;;;0.30;100.00;99986.13;5045031;28;20120;-58
2022/12/27 05:57:03;;;;;;;4.85;1.70;;;;;;;0.39;100.00;99985.44;5023924;28;20063;-58
2022/12/27 05:59:28;;;;;;;34.35;10.75;;;;;;;0.36;100.00;99981.19;5023239;28;20384;-58
2022/12/27 06:01:53;;;;;;;22.08;8.02;;;;;;;0.28;100.00;99978.22;5029377;28;20415;-58
2022/12/27 06:04:19;;;;;;;23.40;6.97;;;;;;;0.19;100.00;99977.09;5030733;28;20935;-58
2022/12/27 06:06:44;;;;;;;6.28;3.15;;;;;;;0.13;100.00;99987.28;5031004;28;20036;-58
2022/12/27 06:09:09;;;;;;;6.80;2.15;;;;;;;0.11;100.00;99990.09;5023912;28;20472;-58
2022/12/27 06:11:35;;;;;;;5.88;1.90;;;;;;;0.20;100.00;99986.75;5025898;28;20028;-58
2022/12/27 06:14:00;;;;;;;2.78;1.45;;;;;;;0.25;100.00;99988.25;5031316;28;20101;-58
2022/12/27 06:16:26;;;;;;;4.35;1.42;;;;;;;0.21;100.00;99995.63;5027941;28;20026;-59
2022/12/27 06:18:52;;;;;;;3.85;1.52;;;;;;;0.17;100.00;99986.13;5025610;28;20033;-58
2022/12/27 06:21:19;;;;;;;6.38;2.10;;;;;;;0.21;100.00;99992.97;5021928;28;20037;-59
2022/12/27 06:23:45;;;;;;;6.43;1.65;;;;;;;0.05;100.00;99993.16;5030093;28;20033;-58
2022/12/27 06:26:17;;;;;;;4.30;1.63;;;;;;;-0.06;100.00;100001.03;5026754;28;20071;-59
2022/12/27 06:28:42;;;;;;;6.72;1.60;;;;;;;-0.09;100.00;100001.25;5035097;28;20068;-59
2022/12/27 06:31:08;;;;;;;5.70;1.77;;;;;;;-0.22;100.00;99993.25;5036287;28;20056;-58
2022/12/27 06:33:34;;;;;;;6.43;1.50;;;;;;;-0.12;100.00;99998.81;5030966;28;20033;-58
2022/12/27 06:36:05;;;;;;;5.10;1.50;;;;;;;-0.08;100.00;100002.94;5018780;28;20038;-58
2022/12/27 06:38:31;;;;;;;3.00;1.58;;;;;;;0.00;100.00;99997.97;5024998;28;20021;-59
2022/12/27 06:41:01;;;;;;;4.30;1.27;;;;;;;0.09;100.00;100005.28;5029507;28;20037;-59
2022/12/27 06:43:26;;;;;;;3.88;1.13;;;;;;;0.17;100.00;100008.28;5033045;28;20120;-58
2022/12/27 06:45:59;;;;;;;3.20;1.27;;;;;;;0.09;100.00;100005.28;5027784;28;20116;-58
2022/12/27 06:48:25;;;;;;;6.40;2.10;;;;;;;0.11;100.00;100003.38;5031242;28;20136;-58
2022/12/27 06:50:50;;;;;;;7.00;2.40;;;;;;;0.11;100.00;100003.38;5026233;28;20120;-58
2022/12/27 06:53:16;;;;;;;5.90;2.55;;;;;;;0.01;100.00;100002.31;5024593;28;20036;-58
2022/12/27 06:55:41;;;;;;;5.32;2.40;;;;;;;-0.04;100.00;100007.09;5039635;28;20419;-59
2022/12/27 06:58:06;;;;;;;4.07;2.17;;;;;;;-0.03;100.00;100011.47;5030896;28;20064;-59
2022/12/27 07:00:32;;;;;;;7.50;2.35;;;;;;;-0.08;100.00;100005.59;5033680;28;20469;-61
2022/12/27 07:02:57;;;;;;;4.03;1.83;;;;;;;-0.02;100.00;100018.50;5024809;28;20385;-60
2022/12/27 07:05:22;;;;;;;3.85;1.98;;;;;;;0.03;100.00;100011.06;5024267;28;20035;-60
2022/12/27 07:07:48;;;;;;;4.47;2.33;;;;;;;0.07;100.00;100011.69;5030138;28;20078;-61
2022/12/27 07:10:14;;;;;;;7.18;2.78;;;;;;;0.08;100.00;100030.22;5028631;28;20033;-60
2022/12/27 07:12:39;;;;;;;8.50;2.67;;;;;;;0.12;100.00;100031.69;5042115;28;20032;-60
2022/12/27 07:15:05;;;;;;;11.25;3.25;;;;;;;0.26;100.00;100032.53;5033266;28;20056;-60
2022/12/27 07:17:32;;;;;;;9.00;3.40;;;;;;;0.35;100.00;100034.56;5025131;28;20047;-60
2022/12/27 07:19:58;;;;;;;6.40;2.63;;;;;;;0.36;100.00;100036.25;5017519;28;20435;-61
2022/12/27 07:22:23;;;;;;;5.65;2.50;;;;;;;0.38;100.00;100035.19;5041415;28;20028;-61
2022/12/27 07:24:48;;;;;;;5.45;2.03;;;;;;;0.54;100.00;100031.44;5030142;28;20068;-61
2022/12/27 07:27:14;;;;;;;4.45;2.33;;;;;;;0.67;100.00;100031.41;5028948;28;20064;-61
2022/12/27 07:29:39;;;;;;;6.55;2.25;;;;;;;0.72;100.00;100024.78;5019812;28;20453;-60
2022/12/27 07:32:04;;;;;;;8.98;2.15;;;;;;;0.79;100.00;100022.56;5021747;28;20481;-61
2022/12/27 07:34:30;;;;;;;3.90;1.73;;;;;;;0.94;100.00;100018.75;5020032;28;20029;-61
2022/12/27 07:36:55;;;;;;;4.65;2.22;;;;;;;1.05;100.00;100026.84;5033587;28;20040;-61
2022/12/27 07:39:20;;;;;;;4.68;2.45;;;;;;;1.16;100.00;100033.19;5056457;28;20033;-61
2022/12/27 07:41:46;;;;;;;6.32;2.30;;;;;;;1.28;100.00;100032.25;5020809;28;20047;-61
2022/12/27 07:44:11;;;;;;;6.65;2.45;;;;;;;1.34;100.00;100021.16;5024541;28;20457;-61
2022/12/27 07:46:37;;;;;;;8.88;2.53;;;;;;;1.38;100.00;100019.09;5028887;28;20649;-61
2022/12/27 07:49:02;;;;;;;4.03;2.00;;;;;;;1.41;100.00;100022.38;5026632;28;20381;-61
2022/12/27 07:51:28;;;;;;;7.43;2.35;;;;;;;1.37;100.00;100004.94;5022310;28;20029;-61
2022/12/27 07:53:54;;;;;;;9.45;3.22;;;;;;;1.45;100.00;100015.88;5025058;28;20113;-61
2022/12/27 07:56:22;;;;;;;5.18;2.25;;;;;;;1.44;100.00;100008.84;5017355;28;20152;-61
2022/12/27 07:58:48;;;;;;;7.15;2.55;;;;;;;1.46;100.00;100006.03;5026559;28;20048;-61
2022/12/27 08:01:16;;;;;;;5.07;1.98;;;;;;;1.49;100.00;100005.81;5027710;28;20037;-61
2022/12/27 08:03:42;;;;;;;8.48;3.63;;;;;;;1.56;100.00;100000.88;5029951;28;20078;-61
2022/12/27 08:06:20;;;;;;;7.70;3.58;;;;;;;1.60;100.00;99997.00;5046971;28;20032;-61
2022/12/27 08:08:45;;;;;;;6.68;2.38;;;;;;;1.65;100.00;100000.16;5021445;28;20037;-61
2022/12/27 08:11:11;;;;;;;8.25;2.40;;;;;;;1.82;100.00;100006.88;5055040;28;20029;-61
2022/12/27 08:13:36;;;;;;;4.45;2.08;;;;;;;1.94;100.00;100001.47;5034414;28;20025;-61
2022/12/27 08:16:02;;;;;;;5.25;2.00;;;;;;;2.04;100.00;100006.06;5030126;28;20103;-61
2022/12/27 08:18:28;;;;;;;3.60;2.03;;;;;;;2.18;100.00;100001.38;5017940;28;20064;-61
2022/12/27 08:20:54;;;;;;;11.80;2.83;;;;;;;2.22;100.00;100001.13;5053292;28;20068;-61
2022/12/27 08:23:20;;;;;;;7.53;2.65;;;;;;;2.28;100.00;100001.50;5048485;28;20024;-61
2022/12/27 08:25:45;;;;;;;4.07;2.08;;;;;;;2.38;100.00;100006.94;5029557;28;20445;-61
2022/12/27 08:28:14;;;;;;;8.15;2.55;;;;;;;2.42;100.00;100009.25;5030294;28;20036;-61
2022/12/27 08:30:41;;;;;;;6.80;1.40;;;;;;;2.52;100.00;100009.38;5040572;28;20029;-61
2022/12/27 08:33:08;;;;;;;3.92;1.92;;;;;;;2.55;100.00;99992.25;5077724;22;20056;-80
2022/12/27 08:35:39;;;;;;;5.55;2.85;;;;;;;2.75;100.00;100007.53;5065565;28;20111;-78
2022/12/27 08:38:04;;;;;;;3.72;1.70;;;;;;;2.71;100.00;99982.03;5050471;28;20024;-79
2022/12/27 08:40:30;;;;;;;4.88;1.83;;;;;;;2.88;100.00;99991.34;5044142;28;20119;-78
2022/12/27 08:42:55;;;;;;;4.15;1.60;;;;;;;3.02;100.00;99985.72;5058059;28;20028;-80
2022/12/27 08:45:20;;;;;;;3.42;1.60;;;;;;;3.24;100.00;100008.84;5035393;28;20483;-78
2022/12/27 08:47:46;;;;;;;3.25;1.40;;;;;;;3.33;100.00;100001.03;5047950;28;20045;-82
2022/12/27 08:50:11;;;;;;;3.75;1.50;;;;;;;3.16;100.00;99970.38;5037715;28;20079;-78
2022/12/27 08:52:36;;;;;;;4.90;1.60;;;;;;;3.57;100.00;100001.69;5034116;28;20122;-76
2022/12/27 08:55:02;;;;;;;4.55;1.95;;;;;;;3.49;100.00;99982.75;5055291;28;20036;-76
2022/12/27 08:57:27;;;;;;;4.30;1.52;;;;;;;3.58;100.00;100000.69;5026932;28;20027;-77
2022/12/27 08:59:53;;;;;;;5.88;2.00;;;;;;;3.62;100.00;99983.41;5032697;28;20040;-77
2022/12/27 09:02:18;;;;;;;4.25;1.70;;;;;;;3.77;100.00;99996.47;5036290;28;20033;-73
2022/12/27 09:04:43;;;;;;;6.50;1.80;;;;;;;3.98;100.00;100010.69;5053214;28;20429;-74
2022/12/27 09:07:08;;;;;;;4.93;2.13;;;;;;;3.98;100.00;99991.94;5055137;28;20033;-78
2022/12/27 09:09:34;;;;;;;5.65;2.63;;;;;;;4.14;100.00;99984.31;5045967;28;20017;-77
2022/12/27 09:11:59;;;;;;;9.43;2.03;;;;;;;4.68;100.00;99990.28;5039210;28;20636;-79
2022/12/27 09:14:25;;;;;;;5.25;1.77;;;;;;;5.70;100.00;100012.31;5035793;28;20032;-73
2022/12/27 09:16:50;;;;;;;5.68;1.50;;;;;;;7.09;100.00;99985.66;5045770;28;20022;-76
2022/12/27 09:19:15;;;;;;;5.93;1.77;;;;;;;8.10;100.00;99997.00;5053317;28;20112;-76
2022/12/27 09:21:41;;;;;;;8.45;1.77;;;;;;;8.49;100.00;99993.91;5028665;28;20033;-75
2022/12/27 09:24:10;;;;;;;7.15;1.92;;;;;;;9.10;100.00;99981.97;5033508;28;20158;-76
2022/12/27 09:26:36;;;;;;;9.52;1.50;;;;;;;7.58;100.00;99981.59;5026895;28;20124;-76
2022/12/27 09:29:01;;;;;;;5.25;1.70;;;;;;;6.57;100.00;100022.03;5034362;28;20477;-77
2022/12/27 09:31:27;;;;;;;6.65;2.33;;;;;;;7.10;100.00;100016.94;5029819;28;20075;-76
2022/12/27 09:33:53;;;;;;;2.45;1.35;;;;;;;8.40;100.00;100005.63;5037243;28;20021;-75
2022/12/27 09:36:22;;;;;;;3.03;1.00;;;;;;;9.44;100.00;100008.88;5042296;28;20031;-77
2022/12/27 09:38:48;;;;;;;5.93;1.17;;;;;;;9.94;100.00;100020.56;5037126;28;20049;-74
2022/12/27 09:41:21;;;;;;;2.58;1.00;;;;;;;10.74;96.38;100026.06;5045131;28;20033;-74
2022/12/27 09:43:57;;;;;;;1.85;1.00;;;;;;;10.91;88.30;100023.28;5045621;28;20046;-74
2022/12/27 09:46:31;;;;;;;3.33;1.10;;;;;;;11.01;86.60;100026.63;5045252;28;20323;-72
2022/12/27 09:48:57;;;;;;;2.03;1.02;;;;;;;12.04;78.81;100015.44;5044889;28;20394;-80
2022/12/27 09:51:56;;;;;;;4.80;1.35;;;;;;;13.08;71.38;100020.13;5051227;28;20021;-77
2022/12/27 09:54:35;;;;;;;3.88;1.17;;;;;;;13.01;68.25;100016.47;5022775;28;20371;-79
2022/12/27 09:57:02;;;;;;;4.93;1.20;;;;;;;13.74;66.49;99995.56;5036199;28;20024;-78
2022/12/27 09:59:33;;;;;;;4.13;1.17;;;;;;;14.24;62.15;99997.25;5022470;28;20022;-79
2022/12/27 10:01:58;;;;;;;6.13;1.25;;;;;;;14.20;63.13;99982.38;5042040;28;20041;-82
2022/12/27 10:04:23;;;;;;;5.25;1.50;;;;;;;13.50;62.29;99980.47;5014665;28;20025;-69
2022/12/27 10:06:49;;;;;;;5.47;1.25;;;;;;;13.81;63.04;99991.88;5032758;28;20024;-69
2022/12/27 10:09:39;;;;;;;4.55;1.33;;;;;;;13.81;63.50;100000.03;5053841;28;20047;-78
2022/12/27 10:12:38;;;;;;;3.50;1.30;;;;;;;12.65;65.54;100004.50;5046557;28;20434;-71
2022/12/27 10:15:19;;;;;;;2.60;1.17;;;;;;;12.70;67.79;100006.63;5044649;28;20037;-70
2022/12/27 10:18:26;;;;;;;5.72;1.50;;;;;;;13.41;63.52;100014.25;5051915;28;20083;-71
2022/12/27 10:21:09;;;;;;;5.22;1.35;;;;;;;13.00;68.10;100001.19;5039005;28;20095;-70
2022/12/27 10:23:39;;;;;;;3.08;1.17;;;;;;;13.77;64.12;99981.56;5051931;28;20344;-71
2022/12/27 10:26:11;;;;;;;4.22;1.20;;;;;;;13.19;64.89;99975.28;5032562;28;20036;-69
2022/12/27 10:28:53;;;;;;;3.25;1.35;;;;;;;13.19;64.98;100007.91;5034166;28;20467;-72
2022/12/27 10:31:20;;;;;;;5.13;1.15;;;;;;;13.82;63.62;99985.38;5024593;28;20052;-77
2022/12/27 10:33:48;;;;;;;4.05;1.30;;;;;;;15.06;59.81;99973.00;5047660;28;20402;-73
2022/12/27 10:36:19;;;;;;;5.00;1.20;;;;;;;15.37;58.12;99967.03;5039443;28;20029;-77
2022/12/27 10:38:45;;;;;;;3.25;1.42;;;;;;;15.69;56.39;99968.19;5035357;28;20129;-76
2022/12/27 10:41:33;;;;;;;3.30;1.23;;;;;;;16.04;54.80;99967.97;5040454;28;20049;-80
2022/12/27 10:43:59;;;;;;;4.40;1.33;;;;;;;15.57;55.62;99981.56;5036413;28;20025;-79
2022/12/27 10:46:27;;;;;;;3.35;1.10;;;;;;;15.01;57.80;99978.22;5046620;28;20031;-78
2022/12/27 10:49:01;;;;;;;3.30;1.40;;;;;;;16.28;54.34;99982.88;5021264;28;20051;-71
2022/12/27 10:51:33;;;;;;;2.63;1.30;;;;;;;15.37;55.50;99969.75;5035907;28;20035;-71
2022/12/27 10:54:02;;;;;;;2.72;1.45;;;;;;;14.72;57.47;99980.19;5048860;28;20024;-71
2022/12/27 10:56:40;;;;;;;3.67;1.40;;;;;;;13.55;59.93;99967.16;5032755;28;20079;-72
2022/12/27 10:59:14;;;;;;;2.88;1.20;;;;;;;13.28;62.35;99982.31;5048646;28;20059;-71
2022/12/27 11:01:40;;;;;;;3.58;1.20;;;;;;;12.89;65.58;99994.34;5044208;28;20096;-72
2022/12/27 11:04:20;;;;;;;3.40;1.38;;;;;;;11.67;71.84;99989.13;5042918;28;20106;-70
2022/12/27 11:06:58;;;;;;;2.83;1.30;;;;;;;12.19;71.59;99982.09;5068399;28;20059;-73
2022/12/27 11:09:35;;;;;;;5.28;1.73;;;;;;;13.00;69.80;99984.91;5045751;28;20502;-74
2022/12/27 11:12:20;;;;;;;5.13;1.52;;;;;;;13.35;68.52;99978.63;5043665;28;20425;-72
2022/12/27 11:14:58;;;;;;;4.38;1.27;;;;;;;12.27;68.10;99988.28;5049625;28;20029;-72
2022/12/27 11:17:27;;;;;;;3.10;1.20;;;;;;;12.47;68.35;99957.88;5061215;28;20405;-71
2022/12/27 11:19:55;;;;;;;4.13;1.40;;;;;;;13.67;64.95;99981.88;5034581;28;20087;-71
2022/12/27 11:22:21;;;;;;;5.10;1.13;;;;;;;14.97;60.84;99966.91;5049336;28;20501;-71
2022/12/27 11:24:49;;;;;;;2.35;1.23;;;;;;;15.46;57.85;99957.63;5045886;28;20040;-72
2022/12/27 11:27:24;;;;;;;3.80;1.10;;;;;;;14.41;57.85;99961.56;5033833;28;20029;-71
2022/12/27 11:29:51;;;;;;;5.78;0.93;;;;;;;14.24;59.75;99958.28;5034190;28;20736;-70
2022/12/27 11:32:22;;;;;;;3.33;1.10;;;;;;;14.98;58.37;99960.41;5048711;28;20043;-71
2022/12/27 11:34:49;;;;;;;4.47;1.30;;;;;;;14.67;57.84;99975.38;5051235;28;20106;-71
2022/12/27 11:37:17;;;;;;;3.92;1.15;;;;;;;14.57;58.56;99963.16;5047510;28;20040;-71
2022/12/27 11:39:50;;;;;;;4.57;0.97;;;;;;;12.94;61.77;99956.59;5030416;28;20091;-70
2022/12/27 11:42:41;;;;;;;6.43;1.15;;;;;;;12.23;66.27;99961.69;5043462;28;20112;-71
2022/12/27 11:45:28;;;;;;;6.78;1.20;;;;;;;13.01;65.98;99967.56;5030384;28;20025;-72
2022/12/27 11:48:30;;;;;;;4.35;1.27;;;;;;;13.17;63.36;99961.88;5049515;28;20028;-71
2022/12/27 11:51:11;;;;;;;5.43;1.10;;;;;;;12.54;67.07;99968.81;5032329;28;20028;-71
2022/12/27 11:53:46;;;;;;;6.20;1.08;;;;;;;12.23;69.09;99961.69;5039462;28;20115;-71
2022/12/27 11:56:28;;;;;;;2.85;1.25;;;;;;;11.61;80.31;99960.88;5031562;28;20027;-72
2022/12/27 11:59:17;;;;;;;4.90;1.00;;;;;;;12.00;80.91;99954.47;5045544;28;20028;-71
2022/12/27 12:02:06;;;;;;;2.95;0.80;;;;;;;11.92;80.51;99961.81;5041477;28;20120;-71
2022/12/27 12:04:50;;;;;;;15.15;7.00;;;;;;;11.79;81.72;99957.84;5043691;28;20123;-71
2022/12/27 12:07:33;;;;;;;3.25;1.25;;;;;;;11.34;86.29;99961.41;5043945;28;20029;-72
2022/12/27 12:10:17;;;;;;;7.30;1.45;;;;;;;11.25;95.38;99962.50;5050276;28;20033;-71
2022/12/27 12:13:07;;;;;;;3.03;1.02;;;;;;;11.09;99.53;99969.72;5027379;28;20441;-72
2022/12/27 12:15:38;;;;;;;5.60;1.50;;;;;;;10.65;100.00;99961.28;5046661;28;20021;-71
2022/12/27 12:18:24;;;;;;;6.03;1.70;;;;;;;10.39;100.00;99972.38;5048508;28;20036;-71
2022/12/27 12:20:57;;;;;;;4.32;1.35;;;;;;;10.28;100.00;99963.59;5042096;28;20375;-72
2022/12/27 12:24:12;;;;;;;4.30;1.75;;;;;;;10.83;100.00;99966.47;5035752;28;20021;-71
2022/12/27 12:27:07;;;;;;;4.03;1.20;;;;;;;11.39;90.25;99959.84;5044599;28;20018;-71
2022/12/27 12:29:57;;;;;;;6.20;1.80;;;;;;;12.09;85.80;99951.69;5028147;28;20044;-71
2022/12/27 12:32:51;;;;;;;6.97;1.77;;;;;;;12.40;80.64;99951.53;5032126;28;20029;-68
2022/12/27 12:35:34;;;;;;;4.93;1.27;;;;;;;12.57;77.35;99963.84;5036228;28;20515;-68
2022/12/27 12:38:19;;;;;;;5.18;0.95;;;;;;;12.36;78.92;99953.75;5045395;28;20048;-72
2022/12/27 12:41:02;;;;;;;7.05;1.38;;;;;;;11.80;85.40;99955.97;5024634;28;20071;-71
2022/12/27 12:43:55;;;;;;;2.80;1.20;;;;;;;12.04;85.89;99957.66;5023550;28;20542;-68
2022/12/27 12:46:41;;;;;;;4.68;0.82;;;;;;;11.99;84.58;99958.19;5059496;28;20509;-76
2022/12/27 12:49:26;;;;;;;5.93;1.30;;;;;;;12.01;87.37;99950.72;5049847;28;20029;-68
2022/12/27 12:52:27;;;;;;;3.22;1.40;;;;;;;12.39;81.38;99945.25;5041233;28;20383;-69
2022/12/27 12:55:29;;;;;;;7.85;1.23;;;;;;;13.16;72.61;99946.63;5049811;28;20085;-69
2022/12/27 12:58:23;;;;;;;3.72;1.50;;;;;;;13.46;68.60;99947.38;5042195;28;20053;-68
2022/12/27 13:01:20;;;;;;;6.35;1.70;;;;;;;14.10;67.36;99954.66;5044709;28;20521;-70
2022/12/27 13:04:00;;;;;;;3.90;1.33;;;;;;;14.08;66.85;99945.84;5039881;28;20032;-68
2022/12/27 13:06:56;;;;;;;5.15;1.38;;;;;;;14.35;63.64;99946.84;5057984;28;20029;-68
2022/12/27 13:09:59;;;;;;;3.35;0.85;;;;;;;13.98;65.57;99929.00;5049053;28;20475;-75
2022/12/27 13:12:49;;;;;;;4.13;1.40;;;;;;;14.32;63.70;99936.34;5030853;28;20025;-79
2022/12/27 13:15:30;;;;;;;3.80;1.42;;;;;;;15.23;59.50;99928.00;5039815;28;20035;-72
2022/12/27 13:18:09;;;;;;;4.88;1.40;;;;;;;15.12;60.95;99939.50;5022618;28;20664;-72
2022/12/27 13:21:01;;;;;;;4.60;1.17;;;;;;;15.98;58.44;99919.66;5045388;28;20063;-72
2022/12/27 13:23:36;;;;;;;3.60;1.10;;;;;;;16.14;54.85;99923.88;5016274;28;20071;-76
2022/12/27 13:26:24;;;;;;;5.80;1.25;;;;;;;15.70;54.16;99912.56;5041040;28;20036;-76
2022/12/27 13:29:09;;;;;;;4.07;1.23;;;;;;;16.30;54.55;99920.69;5030339;28;20735;-73
2022/12/27 13:32:03;;;;;;;3.03;1.05;;;;;;;15.01;56.09;99921.84;4976134;28;20034;-72
2022/12/27 13:34:43;;;;;;;5.20;1.50;;;;;;;14.07;60.49;99922.41;5050036;28;20032;-71
2022/12/27 13:37:21;;;;;;;3.35;1.10;;;;;;;12.37;65.04;99925.59;5036800;28;20474;-76
2022/12/27 13:40:16;;;;;;;6.75;1.40;;;;;;;11.04;82.24;99920.66;5016211;28;20037;-76
2022/12/27 13:43:27;;;;;;;2.85;1.20;;;;;;;10.24;100.00;99915.41;5029283;28;20504;-74
2022/12/27 13:46:30;;;;;;;6.95;1.42;;;;;;;10.26;100.00;99913.38;4972047;28;20050;-74